CheckWX is a tool to help pilots better visualize weather data.  It is not intended as a substitute for an official pre-flight weather briefing.

03:38:49 UTC

GLRB TAF
Roberts International Airport
Monrovia, Liberia
TAF GLRB 192200Z 2000/2106 06004KT 9000 TSRA BKN010 FEW022CB TEMPO 2001/2106 VRB02KT 8000 TSRA BKN009 FEW020CB BECMG 2006/2007 00000KT 7000 BKN010 FEW020CB

Nov-20@
00:00 UTC

Nov-20 @ 00:00 UTC

Nov-20@
06:00 UTC

Nov-20 @ 06:00 UTC

TAF GLRB 192200Z 2000/2106 06004KT 9000 TSRA BKN010 FEW022CB
Wind
  • 060° at 4 KTS
Conditions
Thunderstorm, Rain
Cloud Levels
  • Broken at 1,000' AGL
  • Few at 2,200' AGL

Nov-20@
01:00 UTC

Nov-20 @ 01:00 UTC

Nov-21@
06:00 UTC

Nov-21 @ 06:00 UTC

TEMPO 2001/2106 VRB02KT 8000 TSRA BKN009 FEW020CB

Temporary

Temporary Changes expected for less than half the time period

Wind
  • Variable at 2 KTS
Conditions
Thunderstorm, Rain
Cloud Levels
  • Broken at 900' AGL
  • Few at 2,000' AGL

Nov-20@
06:00 UTC

Nov-20 @ 06:00 UTC

Nov-21@
06:00 UTC

Nov-21 @ 06:00 UTC

BECMG 2006/2007 00000KT 7000 BKN010 FEW020CB

Becoming

Becoming Conditions expected by Wed, Nov 20, 2019 @ 07:00 UTC

Conditions
Thunderstorm, Rain
Cloud Levels
  • Broken at 1,000' AGL
  • Few at 2,000' AGL